Time;durP1;ratioP1;P1;durP2;ratioP2;P2;SDS_P1;SDS_P2;PMS_P1;PMS_P2;Temp;Humidity;BMP_temperature;BMP_pressure;BME280_temperature;BME280_humidity;BME280_pressure;Samples;Min_cycle;Max_cycle;Signal;HPM_P1;HPM_P2
2023/08/12 00:01:41;;;;;;;4.47;2.60;;;;;;;;;;5097279;28;20035;-89
2023/08/12 00:04:07;;;;;;;5.53;3.00;;;;;;;;;;5094708;28;20464;-89
2023/08/12 00:06:32;;;;;;;4.75;2.67;;;;;;;;;;5093005;28;20024;-88
2023/08/12 00:08:57;;;;;;;5.65;3.17;;;;;;;;;;5085462;28;20024;-89
2023/08/12 00:11:23;;;;;;;6.13;3.13;;;;;;;;;;5085791;28;20468;-89
2023/08/12 00:13:48;;;;;;;4.32;2.83;;;;;;;;;;5099682;28;20050;-90
2023/08/12 00:16:14;;;;;;;5.45;3.28;;;;;;;;;;5094586;28;20020;-88
2023/08/12 00:18:39;;;;;;;8.27;3.50;;;;;;;;;;5089719;28;20047;-90
2023/08/12 00:21:09;;;;;;;5.05;3.10;;;;;;;;;;5090637;28;20023;-89
2023/08/12 00:23:44;;;;;;;5.30;2.95;;;;;;;;;;5092898;28;20020;-89
2023/08/12 00:26:10;;;;;;;4.00;2.60;;;;;;;;;;5091544;28;20055;-89
2023/08/12 00:28:36;;;;;;;4.93;2.67;;;;;;;;;;5090298;28;20119;-89
2023/08/12 00:31:02;;;;;;;5.00;3.33;;;;;;;;;;5091029;28;20488;-87
2023/08/12 00:33:27;;;;;;;6.78;3.63;;;;;;;;;;5090999;28;20020;-89
2023/08/12 00:35:53;;;;;;;5.60;3.30;;;;;;;;;;5091822;28;20110;-89
2023/08/12 00:38:18;;;;;;;5.35;3.22;;;;;;;;;;5092794;28;20028;-89
2023/08/12 00:40:44;;;;;;;8.35;3.53;;;;;;;;;;5086312;28;20027;-89
2023/08/12 00:43:09;;;;;;;5.60;3.28;;;;;;;;;;5092010;28;20391;-88
2023/08/12 00:45:35;;;;;;;8.65;3.58;;;;;;;;;;5093821;28;20020;-88
2023/08/12 00:48:02;;;;;;;5.32;3.33;;;;;;;;;;5093329;28;20024;-88
2023/08/12 00:50:29;;;;;;;6.25;3.53;;;;;;;;;;5093822;28;20073;-89
2023/08/12 00:52:54;;;;;;;5.13;3.30;;;;;;;;;;5093112;28;20491;-90
2023/08/12 00:55:20;;;;;;;8.88;4.47;;;;;;;;;;5093489;28;20024;-89
2023/08/12 00:57:46;;;;;;;7.35;3.60;;;;;;;;;;5090157;28;20020;-84
2023/08/12 01:00:12;;;;;;;6.82;3.45;;;;;;;;;;5091580;28;20506;-89
2023/08/12 01:02:38;;;;;;;7.15;3.40;;;;;;;;;;5091004;28;20023;-90
2023/08/12 01:05:04;;;;;;;6.45;3.75;;;;;;;;;;5095541;28;20020;-75
2023/08/12 01:07:29;;;;;;;8.50;3.80;;;;;;;;;;5090317;28;20036;-76
2023/08/12 01:09:55;;;;;;;10.15;4.53;;;;;;;;;;5097015;28;20445;-75
2023/08/12 01:12:29;;;;;;;8.68;5.47;;;;;;;;;;5091943;28;20016;-75
2023/08/12 01:15:21;;;;;;;13.73;4.55;;;;;;;;;;5088271;28;20525;-75
2023/08/12 01:17:51;;;;;;;8.10;4.65;;;;;;;;;;5094452;28;20024;-75
2023/08/12 01:20:25;;;;;;;10.02;5.20;;;;;;;;;;5095317;28;20020;-76
2023/08/12 01:23:13;;;;;;;9.73;4.68;;;;;;;;;;5093436;28;20027;-75
2023/08/12 01:25:38;;;;;;;8.85;4.72;;;;;;;;;;5097701;28;20028;-75
2023/08/12 01:28:05;;;;;;;7.68;4.47;;;;;;;;;;5097836;28;20476;-76
2023/08/12 01:30:30;;;;;;;7.75;4.93;;;;;;;;;;5091247;28;20061;-76
2023/08/12 01:33:09;;;;;;;9.32;5.63;;;;;;;;;;5098459;28;20437;-75
2023/08/12 01:35:41;;;;;;;11.15;5.00;;;;;;;;;;5098956;28;20077;-75
2023/08/12 01:38:09;;;;;;;7.50;4.63;;;;;;;;;;5097650;28;20020;-75
2023/08/12 01:40:35;;;;;;;8.27;5.03;;;;;;;;;;5093646;28;20047;-75
2023/08/12 01:43:03;;;;;;;7.78;5.43;;;;;;;;;;5099045;28;20062;-75
2023/08/12 01:45:30;;;;;;;9.05;4.95;;;;;;;;;;5094063;28;20024;-75
2023/08/12 01:47:56;;;;;;;7.57;5.10;;;;;;;;;;5095830;28;20039;-76
2023/08/12 01:50:21;;;;;;;9.60;4.85;;;;;;;;;;5098091;28;20024;-75
2023/08/12 01:52:46;;;;;;;9.13;6.18;;;;;;;;;;5093722;28;20400;-75
2023/08/12 01:55:12;;;;;;;8.50;6.20;;;;;;;;;;5095226;28;20016;-75
2023/08/12 01:57:37;;;;;;;8.32;5.07;;;;;;;;;;5096475;28;20110;-75
2023/08/12 02:00:03;;;;;;;10.13;6.78;;;;;;;;;;5092225;28;20016;-75
2023/08/12 02:02:29;;;;;;;7.80;5.32;;;;;;;;;;5092604;28;20064;-75
2023/08/12 02:04:54;;;;;;;9.18;6.30;;;;;;;;;;5089542;28;20507;-75
2023/08/12 02:07:20;;;;;;;8.52;5.95;;;;;;;;;;5089084;28;20084;-76
2023/08/12 02:09:45;;;;;;;10.98;5.78;;;;;;;;;;5090732;28;20460;-76
2023/08/12 02:12:10;;;;;;;11.50;7.68;;;;;;;;;;5097421;28;20024;-76
2023/08/12 02:14:36;;;;;;;11.27;7.70;;;;;;;;;;5095067;28;20012;-75
2023/08/12 02:17:05;;;;;;;10.02;6.60;;;;;;;;;;5097716;28;20589;-75
2023/08/12 02:19:31;;;;;;;10.15;6.43;;;;;;;;;;5089586;28;20016;-76
2023/08/12 02:21:56;;;;;;;11.75;7.65;;;;;;;;;;5096084;28;20023;-75
2023/08/12 02:24:22;;;;;;;10.73;7.97;;;;;;;;;;5093793;28;20396;-75
2023/08/12 02:26:47;;;;;;;10.00;6.30;;;;;;;;;;5089905;28;20077;-75
2023/08/12 02:29:12;;;;;;;10.52;6.50;;;;;;;;;;5087301;28;20135;-75
2023/08/12 02:31:38;;;;;;;14.27;7.40;;;;;;;;;;5088916;28;20032;-75
2023/08/12 02:34:03;;;;;;;10.52;7.63;;;;;;;;;;5087471;28;20480;-75
2023/08/12 02:36:29;;;;;;;12.10;8.27;;;;;;;;;;5090202;28;21134;-75
2023/08/12 02:38:54;;;;;;;9.85;7.15;;;;;;;;;;5088874;28;20020;-75
2023/08/12 02:41:20;;;;;;;13.32;8.90;;;;;;;;;;5096688;28;20024;-75
2023/08/12 02:43:45;;;;;;;10.98;7.75;;;;;;;;;;5090012;28;20047;-75
2023/08/12 02:46:10;;;;;;;12.95;8.27;;;;;;;;;;5092332;28;20036;-76
2023/08/12 02:48:36;;;;;;;11.13;8.07;;;;;;;;;;5092825;28;20020;-75
2023/08/12 02:51:02;;;;;;;9.32;6.88;;;;;;;;;;5096221;28;20055;-75
2023/08/12 02:53:27;;;;;;;12.73;8.15;;;;;;;;;;5092785;28;20356;-75
2023/08/12 02:55:52;;;;;;;13.80;8.25;;;;;;;;;;5093171;28;20043;-75
2023/08/12 02:58:18;;;;;;;11.35;7.65;;;;;;;;;;5100383;28;20019;-75
2023/08/12 03:00:43;;;;;;;11.23;7.53;;;;;;;;;;5095673;28;20107;-75
2023/08/12 03:03:09;;;;;;;9.70;6.47;;;;;;;;;;5092934;28;20036;-76
2023/08/12 03:05:35;;;;;;;10.85;7.40;;;;;;;;;;5093431;28;20027;-75
2023/08/12 03:08:03;;;;;;;10.35;6.72;;;;;;;;;;5098126;28;20073;-75
2023/08/12 03:10:29;;;;;;;8.48;6.78;;;;;;;;;;5100350;28;20099;-76
2023/08/12 03:12:54;;;;;;;11.80;7.95;;;;;;;;;;5095781;28;20104;-75
2023/08/12 03:15:20;;;;;;;8.50;5.97;;;;;;;;;;5091729;28;20441;-76
2023/08/12 03:17:45;;;;;;;9.65;6.80;;;;;;;;;;5092329;28;20023;-75
2023/08/12 03:20:11;;;;;;;9.85;6.43;;;;;;;;;;5094183;28;20081;-75
2023/08/12 03:22:37;;;;;;;7.93;5.88;;;;;;;;;;5089060;28;20023;-75
2023/08/12 03:25:03;;;;;;;10.20;6.45;;;;;;;;;;5092171;28;20020;-75
2023/08/12 03:27:29;;;;;;;9.45;6.13;;;;;;;;;;5089133;28;20028;-75
2023/08/12 03:29:54;;;;;;;7.50;5.82;;;;;;;;;;5088511;28;20106;-74
2023/08/12 03:32:19;;;;;;;10.25;7.22;;;;;;;;;;5088732;28;20028;-75
2023/08/12 03:34:45;;;;;;;9.15;6.00;;;;;;;;;;5092954;28;20024;-75
2023/08/12 03:37:10;;;;;;;7.78;6.10;;;;;;;;;;5084317;28;20099;-75
2023/08/12 03:39:35;;;;;;;8.73;6.43;;;;;;;;;;5093789;28;20044;-76
2023/08/12 03:42:01;;;;;;;8.40;5.63;;;;;;;;;;5088746;28;20021;-75
2023/08/12 03:44:26;;;;;;;10.20;6.10;;;;;;;;;;5090341;28;20066;-75
2023/08/12 03:46:52;;;;;;;9.02;6.07;;;;;;;;;;5084158;28;20056;-75
2023/08/12 03:49:17;;;;;;;8.00;5.30;;;;;;;;;;5084601;28;20038;-75
2023/08/12 03:51:42;;;;;;;8.98;5.10;;;;;;;;;;5088747;28;20042;-76
2023/08/12 03:54:08;;;;;;;8.40;5.30;;;;;;;;;;5092180;28;20069;-75
2023/08/12 03:56:33;;;;;;;8.70;5.30;;;;;;;;;;5093752;28;20074;-75
2023/08/12 03:58:58;;;;;;;8.77;6.10;;;;;;;;;;5092181;28;20060;-75
2023/08/12 04:01:24;;;;;;;8.73;5.80;;;;;;;;;;5091794;28;20024;-75
2023/08/12 04:03:50;;;;;;;8.20;4.78;;;;;;;;;;5089817;28;20063;-77
2023/08/12 04:06:15;;;;;;;7.00;5.32;;;;;;;;;;5086652;28;20552;-75
2023/08/12 04:08:41;;;;;;;9.98;5.43;;;;;;;;;;5086525;28;20032;-76
2023/08/12 04:11:06;;;;;;;8.05;5.05;;;;;;;;;;5082264;28;20031;-75
2023/08/12 04:13:32;;;;;;;9.20;5.32;;;;;;;;;;5082661;28;20073;-75
2023/08/12 04:15:57;;;;;;;9.43;5.10;;;;;;;;;;5086543;28;20024;-74
2023/08/12 04:18:23;;;;;;;8.13;5.40;;;;;;;;;;5069441;28;20032;-75
2023/08/12 04:20:49;;;;;;;10.40;5.30;;;;;;;;;;5094528;28;20082;-75
2023/08/12 04:23:15;;;;;;;8.60;5.35;;;;;;;;;;5084662;28;20023;-75
2023/08/12 04:25:45;;;;;;;9.43;4.93;;;;;;;;;;5086531;28;20368;-76
2023/08/12 04:28:11;;;;;;;9.25;5.15;;;;;;;;;;5091650;28;20031;-75
2023/08/12 04:30:43;;;;;;;9.10;4.78;;;;;;;;;;5092775;28;20016;-75
2023/08/12 04:33:08;;;;;;;9.73;4.57;;;;;;;;;;5091554;28;20157;-75
2023/08/12 04:35:34;;;;;;;7.97;4.80;;;;;;;;;;5077024;28;20063;-75
2023/08/12 04:37:59;;;;;;;7.63;4.70;;;;;;;;;;5088412;28;20040;-75
2023/08/12 04:40:24;;;;;;;7.13;4.15;;;;;;;;;;5092532;28;20023;-76
2023/08/12 04:42:50;;;;;;;7.55;4.55;;;;;;;;;;5087351;28;20032;-75
2023/08/12 04:45:15;;;;;;;7.90;4.35;;;;;;;;;;5091770;28;20030;-75
2023/08/12 04:47:40;;;;;;;6.90;4.40;;;;;;;;;;5083735;28;20459;-75
2023/08/12 04:50:06;;;;;;;6.63;4.20;;;;;;;;;;5087589;28;20020;-75
2023/08/12 04:52:32;;;;;;;6.90;4.50;;;;;;;;;;5084366;28;20068;-75
2023/08/12 04:54:57;;;;;;;7.68;4.70;;;;;;;;;;5078413;28;20460;-75
2023/08/12 04:57:22;;;;;;;7.72;4.68;;;;;;;;;;5082074;28;20373;-75
2023/08/12 04:59:48;;;;;;;7.80;4.45;;;;;;;;;;5087220;28;20193;-74
2023/08/12 05:02:13;;;;;;;7.13;4.68;;;;;;;;;;5086695;28;20027;-75
2023/08/12 05:04:39;;;;;;;7.78;4.43;;;;;;;;;;5087203;28;20047;-75
2023/08/12 05:07:04;;;;;;;6.00;4.43;;;;;;;;;;5091220;28;20494;-75
2023/08/12 05:09:29;;;;;;;8.80;4.55;;;;;;;;;;5079360;28;20111;-76
2023/08/12 05:11:55;;;;;;;6.03;4.00;;;;;;;;;;5092664;28;20032;-75
2023/08/12 05:14:20;;;;;;;6.57;4.72;;;;;;;;;;5098435;28;20021;-74
2023/08/12 05:16:46;;;;;;;6.85;4.50;;;;;;;;;;5090360;28;20024;-74
2023/08/12 05:19:11;;;;;;;7.15;3.92;;;;;;;;;;5091039;28;20102;-74
2023/08/12 05:21:36;;;;;;;7.60;4.50;;;;;;;;;;5090642;28;20046;-76
2023/08/12 05:24:02;;;;;;;8.50;4.68;;;;;;;;;;5088848;28;20028;-75
2023/08/12 05:26:28;;;;;;;8.38;4.93;;;;;;;;;;5087135;28;20490;-76
2023/08/12 05:28:53;;;;;;;11.25;4.50;;;;;;;;;;5090558;28;20030;-76
2023/08/12 05:31:18;;;;;;;8.20;3.88;;;;;;;;;;5094395;28;20027;-76
2023/08/12 05:33:44;;;;;;;5.93;4.00;;;;;;;;;;5087876;28;20019;-76
2023/08/12 05:36:09;;;;;;;8.32;4.18;;;;;;;;;;5089908;28;20020;-75
2023/08/12 05:38:35;;;;;;;6.53;3.92;;;;;;;;;;5090819;28;20535;-75
2023/08/12 05:41:00;;;;;;;5.88;3.75;;;;;;;;;;5092045;28;20028;-75
2023/08/12 05:43:25;;;;;;;5.05;3.13;;;;;;;;;;5087043;28;20301;-75
2023/08/12 05:45:51;;;;;;;6.13;3.22;;;;;;;;;;5088148;28;20379;-88
2023/08/12 05:48:16;;;;;;;6.25;3.13;;;;;;;;;;5087167;28;20032;-87
2023/08/12 05:50:41;;;;;;;5.60;3.35;;;;;;;;;;5089151;28;20024;-87
2023/08/12 05:53:07;;;;;;;6.40;3.17;;;;;;;;;;5090428;28;20028;-87
2023/08/12 05:55:34;;;;;;;6.07;3.40;;;;;;;;;;5097748;28;20432;-87
2023/08/12 05:58:00;;;;;;;6.53;3.40;;;;;;;;;;5102267;28;20082;-87
2023/08/12 06:00:25;;;;;;;6.63;4.30;;;;;;;;;;5093273;28;20020;-88
2023/08/12 06:02:50;;;;;;;6.07;3.17;;;;;;;;;;5092679;28;20395;-88
2023/08/12 06:05:16;;;;;;;5.63;3.65;;;;;;;;;;5090148;28;20016;-87
2023/08/12 06:07:41;;;;;;;6.10;3.63;;;;;;;;;;5091611;28;20028;-86
2023/08/12 06:10:07;;;;;;;5.20;3.17;;;;;;;;;;5089229;28;20020;-89
2023/08/12 06:12:33;;;;;;;6.25;3.75;;;;;;;;;;5091066;28;20500;-88
2023/08/12 06:14:58;;;;;;;5.25;3.80;;;;;;;;;;5088005;28;20051;-89
2023/08/12 06:17:24;;;;;;;8.93;3.55;;;;;;;;;;5093446;28;20159;-90
2023/08/12 06:19:49;;;;;;;5.68;3.50;;;;;;;;;;5093997;28;20028;-90
2023/08/12 06:22:14;;;;;;;5.78;3.50;;;;;;;;;;5084814;28;20031;-91
2023/08/12 06:24:40;;;;;;;4.90;3.35;;;;;;;;;;5080038;28;20499;-90
2023/08/12 06:27:05;;;;;;;4.68;3.45;;;;;;;;;;5082608;28;20040;-92
2023/08/12 06:29:31;;;;;;;5.18;3.60;;;;;;;;;;5092237;28;20042;-90
2023/08/12 06:31:56;;;;;;;6.40;3.42;;;;;;;;;;5091182;28;20054;-90
2023/08/12 06:34:21;;;;;;;6.68;3.58;;;;;;;;;;5092907;28;20016;-87
2023/08/12 06:36:47;;;;;;;5.88;3.45;;;;;;;;;;5078769;28;20480;-89
2023/08/12 06:39:12;;;;;;;4.60;3.20;;;;;;;;;;5094586;28;20034;-91
2023/08/12 06:41:38;;;;;;;6.13;3.30;;;;;;;;;;5088530;28;20040;-90
2023/08/12 06:44:04;;;;;;;5.18;3.60;;;;;;;;;;5092484;28;20434;-92
2023/08/12 06:46:30;;;;;;;8.02;3.70;;;;;;;;;;5089179;28;20391;-91
2023/08/12 06:48:56;;;;;;;5.68;3.13;;;;;;;;;;5111837;28;20012;-90
2023/08/12 06:51:21;;;;;;;5.65;3.50;;;;;;;;;;5093847;28;20013;-91
2023/08/12 06:53:47;;;;;;;4.57;3.20;;;;;;;;;;5079353;28;20020;-90
2023/08/12 06:56:13;;;;;;;5.00;2.60;;;;;;;;;;5089328;28;20130;-75
2023/08/12 06:58:39;;;;;;;5.35;3.55;;;;;;;;;;5081798;28;20039;-75
2023/08/12 07:01:04;;;;;;;4.72;3.10;;;;;;;;;;5090300;28;20024;-75
2023/08/12 07:03:29;;;;;;;4.50;2.97;;;;;;;;;;5109327;28;20073;-75
2023/08/12 07:05:55;;;;;;;3.70;2.85;;;;;;;;;;5093108;28;20060;-76
2023/08/12 07:08:20;;;;;;;4.68;2.83;;;;;;;;;;5093212;28;20498;-75
2023/08/12 07:10:46;;;;;;;4.00;2.70;;;;;;;;;;5093761;28;20078;-76
2023/08/12 07:13:11;;;;;;;4.50;3.00;;;;;;;;;;5092963;28;20107;-76
2023/08/12 07:15:36;;;;;;;4.47;2.63;;;;;;;;;;5105323;28;20072;-75
2023/08/12 07:18:02;;;;;;;3.50;2.50;;;;;;;;;;5083032;28;20028;-75
2023/08/12 07:20:28;;;;;;;4.05;2.53;;;;;;;;;;5097155;28;20031;-76
2023/08/12 07:22:53;;;;;;;3.35;2.30;;;;;;;;;;5093528;28;20024;-76
2023/08/12 07:25:18;;;;;;;4.20;2.40;;;;;;;;;;5092492;28;20174;-76
2023/08/12 07:27:44;;;;;;;3.15;2.22;;;;;;;;;;5094191;28;20154;-76
2023/08/12 07:30:10;;;;;;;4.25;2.03;;;;;;;;;;5092718;28;20027;-75
2023/08/12 07:32:39;;;;;;;3.50;1.98;;;;;;;;;;5092152;28;20020;-76
2023/08/12 07:35:08;;;;;;;3.45;2.30;;;;;;;;;;5090351;28;20020;-76
2023/08/12 07:37:34;;;;;;;3.55;2.40;;;;;;;;;;5082667;28;20058;-76
2023/08/12 07:39:59;;;;;;;4.40;2.60;;;;;;;;;;5088326;28;20440;-76
2023/08/12 07:42:24;;;;;;;3.08;2.13;;;;;;;;;;5091868;28;20032;-76
2023/08/12 07:44:50;;;;;;;3.28;2.05;;;;;;;;;;5091930;28;20153;-75
2023/08/12 07:47:15;;;;;;;2.92;2.00;;;;;;;;;;5093585;28;20019;-76
2023/08/12 07:49:42;;;;;;;3.05;1.90;;;;;;;;;;5093557;28;20028;-75
2023/08/12 07:52:07;;;;;;;2.97;2.17;;;;;;;;;;5092126;28;20081;-76
2023/08/12 07:54:33;;;;;;;2.83;1.60;;;;;;;;;;5096643;28;20422;-76
2023/08/12 07:56:58;;;;;;;3.03;2.10;;;;;;;;;;5095855;28;20077;-76
2023/08/12 07:59:23;;;;;;;2.58;1.60;;;;;;;;;;5097914;28;20081;-76
2023/08/12 08:01:49;;;;;;;2.75;1.60;;;;;;;;;;5096284;28;20032;-76
2023/08/12 08:04:14;;;;;;;2.63;1.80;;;;;;;;;;5085655;28;20032;-88
2023/08/12 08:06:40;;;;;;;2.63;1.50;;;;;;;;;;5086017;28;20020;-77
2023/08/12 08:09:05;;;;;;;5.10;1.40;;;;;;;;;;5091308;28;20020;-75
2023/08/12 08:11:31;;;;;;;2.55;1.90;;;;;;;;;;5086902;28;20024;-76
2023/08/12 08:13:58;;;;;;;2.70;1.52;;;;;;;;;;5097033;28;20601;-75
2023/08/12 08:16:24;;;;;;;3.85;1.40;;;;;;;;;;5091861;28;20384;-75
2023/08/12 08:18:49;;;;;;;4.13;1.70;;;;;;;;;;5083849;28;20031;-76
2023/08/12 08:21:15;;;;;;;3.42;1.73;;;;;;;;;;5083680;28;20031;-76
2023/08/12 08:23:41;;;;;;;5.82;1.90;;;;;;;;;;5083297;28;20022;-76
2023/08/12 08:26:07;;;;;;;2.13;1.45;;;;;;;;;;5091944;28;20103;-76
2023/08/12 08:28:32;;;;;;;2.97;1.77;;;;;;;;;;5086898;28;20131;-76
2023/08/12 08:30:58;;;;;;;2.45;1.80;;;;;;;;;;5091520;28;20024;-76
2023/08/12 08:33:25;;;;;;;3.95;1.50;;;;;;;;;;5088852;28;20500;-76
2023/08/12 08:35:50;;;;;;;1.85;1.40;;;;;;;;;;5085597;28;20484;-75
2023/08/12 08:38:16;;;;;;;3.15;1.73;;;;;;;;;;5093191;28;20034;-76
2023/08/12 08:40:42;;;;;;;3.05;1.73;;;;;;;;;;5095424;28;20034;-77
2023/08/12 08:43:08;;;;;;;2.05;1.60;;;;;;;;;;5083312;28;20066;-76
2023/08/12 08:45:34;;;;;;;2.38;1.75;;;;;;;;;;5084517;28;20414;-76
2023/08/12 08:48:01;;;;;;;3.42;2.03;;;;;;;;;;5078937;28;20163;-76
2023/08/12 08:50:31;;;;;;;4.45;1.80;;;;;;;;;;5084187;28;20526;-76
2023/08/12 08:52:57;;;;;;;5.57;1.60;;;;;;;;;;5089007;28;20043;-76
2023/08/12 08:55:23;;;;;;;8.80;1.40;;;;;;;;;;5082251;28;20016;-75
2023/08/12 08:57:49;;;;;;;3.50;0.80;;;;;;;;;;5092882;28;20068;-76
2023/08/12 09:00:16;;;;;;;2.67;0.70;;;;;;;;;;5082832;28;20027;-76
2023/08/12 09:02:44;;;;;;;0.80;0.45;;;;;;;;;;5090994;28;20239;-76
2023/08/12 09:05:11;;;;;;;0.55;0.52;;;;;;;;;;5090330;28;20043;-75
2023/08/12 09:07:37;;;;;;;1.30;0.85;;;;;;;;;;5088706;28;20056;-76
2023/08/12 09:10:03;;;;;;;2.28;0.80;;;;;;;;;;5092075;28;20051;-75
2023/08/12 09:12:30;;;;;;;1.20;0.80;;;;;;;;;;5087575;28;20031;-75
2023/08/12 09:14:55;;;;;;;3.15;0.90;;;;;;;;;;5089941;28;20467;-90
2023/08/12 09:17:20;;;;;;;2.20;1.00;;;;;;;;;;5091690;28;20042;-90
2023/08/12 09:19:46;;;;;;;1.23;0.90;;;;;;;;;;5083955;28;20024;-89
2023/08/12 09:22:12;;;;;;;3.67;1.15;;;;;;;;;;5093164;28;20487;-90
2023/08/12 09:24:37;;;;;;;1.83;1.17;;;;;;;;;;5089325;28;20050;-89
2023/08/12 09:27:03;;;;;;;1.63;1.20;;;;;;;;;;5091670;28;20016;-91
2023/08/12 09:29:32;;;;;;;1.88;1.20;;;;;;;;;;5093849;28;20085;-89
2023/08/12 09:32:19;;;;;;;1.52;1.15;;;;;;;;;;5091118;28;20028;-90
2023/08/12 09:34:52;;;;;;;4.25;2.10;;;;;;;;;;5096280;28;20395;-90
2023/08/12 09:37:19;;;;;;;4.85;2.00;;;;;;;;;;5095256;28;20012;-89
2023/08/12 09:39:44;;;;;;;6.15;2.13;;;;;;;;;;5095080;28;20116;-88
2023/08/12 09:42:11;;;;;;;2.88;2.20;;;;;;;;;;5095452;28;20110;-88
2023/08/12 09:44:37;;;;;;;4.90;2.22;;;;;;;;;;5095078;28;20023;-89
2023/08/12 09:47:03;;;;;;;7.28;2.92;;;;;;;;;;5093429;28;20510;-91
2023/08/12 09:49:29;;;;;;;6.60;2.20;;;;;;;;;;5086813;28;20025;-89
2023/08/12 09:51:55;;;;;;;4.25;2.20;;;;;;;;;;5093927;28;20070;-90
2023/08/12 09:54:21;;;;;;;4.10;2.40;;;;;;;;;;5095013;28;20016;-89
2023/08/12 09:56:48;;;;;;;4.65;2.58;;;;;;;;;;5092595;28;20404;-90
2023/08/12 09:59:22;;;;;;;3.75;2.75;;;;;;;;;;5091386;28;20028;-89
2023/08/12 10:01:50;;;;;;;7.63;3.78;;;;;;;;;;5106970;28;20073;-89
2023/08/12 10:04:18;;;;;;;7.18;3.83;;;;;;;;;;5092110;28;20032;-89
2023/08/12 10:06:44;;;;;;;5.45;1.35;;;;;;;;;;5089279;28;20628;-90
2023/08/12 10:09:11;;;;;;;3.30;0.98;;;;;;;;;;5092479;28;20651;-89
2023/08/12 10:11:36;;;;;;;4.88;1.45;;;;;;;;;;5111566;28;20430;-89
2023/08/12 10:14:04;;;;;;;6.35;3.53;;;;;;;;;;5087717;28;20034;-89
2023/08/12 10:16:30;;;;;;;9.90;4.45;;;;;;;;;;5088143;28;20106;-86
2023/08/12 10:19:00;;;;;;;8.45;4.70;;;;;;;;;;5092801;28;20058;-90
2023/08/12 10:21:26;;;;;;;8.75;4.88;;;;;;;;;;5086413;28;20119;-89
2023/08/12 10:23:53;;;;;;;10.70;4.95;;;;;;;;;;5088740;28;20107;-90
2023/08/12 10:26:19;;;;;;;6.55;5.18;;;;;;;;;;5098083;28;20070;-75
2023/08/12 10:28:45;;;;;;;5.88;4.20;;;;;;;;;;5096311;28;20024;-75
2023/08/12 10:31:11;;;;;;;6.45;4.60;;;;;;;;;;5095678;28;20036;-75
2023/08/12 10:33:40;;;;;;;7.85;4.22;;;;;;;;;;5079590;28;20024;-75
2023/08/12 10:36:06;;;;;;;6.90;4.55;;;;;;;;;;5091370;28;20428;-75
2023/08/12 10:38:33;;;;;;;8.18;4.18;;;;;;;;;;5094845;28;20035;-75
2023/08/12 10:41:19;;;;;;;4.80;3.08;;;;;;;;;;5092853;28;20020;-75
2023/08/12 10:44:01;;;;;;;3.55;1.25;;;;;;;;;;5070976;28;20028;-75
2023/08/12 10:46:31;;;;;;;6.10;1.42;;;;;;;;;;5085509;28;20016;-75
2023/08/12 10:48:59;;;;;;;4.40;1.10;;;;;;;;;;5093477;28;20063;-75
2023/08/12 10:51:50;;;;;;;5.13;1.42;;;;;;;;;;5080226;28;20081;-75
2023/08/12 10:54:21;;;;;;;6.68;1.30;;;;;;;;;;5093627;28;20024;-75
2023/08/12 10:57:08;;;;;;;6.55;1.58;;;;;;;;;;5087630;28;20039;-75
2023/08/12 10:59:46;;;;;;;3.30;1.20;;;;;;;;;;5084125;28;20107;-76
2023/08/12 11:02:36;;;;;;;5.05;1.40;;;;;;;;;;5092167;28;20020;-75
2023/08/12 11:05:03;;;;;;;5.15;1.00;;;;;;;;;;5091823;28;20063;-75
2023/08/12 11:07:31;;;;;;;7.20;1.45;;;;;;;;;;5095413;28;20726;-75
2023/08/12 11:10:12;;;;;;;5.28;1.55;;;;;;;;;;5094056;28;20361;-75
2023/08/12 11:12:39;;;;;;;5.88;1.58;;;;;;;;;;5088747;28;20028;-75
2023/08/12 11:15:05;;;;;;;10.10;1.40;;;;;;;;;;5093066;28;20026;-75
2023/08/12 11:17:39;;;;;;;9.98;1.58;;;;;;;;;;5092865;28;20032;-76
2023/08/12 11:20:06;;;;;;;5.57;0.93;;;;;;;;;;5092721;28;20020;-75
2023/08/12 11:22:35;;;;;;;3.38;1.00;;;;;;;;;;5092581;28;20039;-76
2023/08/12 11:25:01;;;;;;;5.00;1.40;;;;;;;;;;5095151;28;20033;-77
2023/08/12 11:27:26;;;;;;;4.32;1.10;;;;;;;;;;5092914;28;20019;-75
2023/08/12 11:29:52;;;;;;;3.97;1.00;;;;;;;;;;5083714;28;20024;-76
2023/08/12 11:32:19;;;;;;;6.38;1.17;;;;;;;;;;5081946;28;20093;-75
2023/08/12 11:34:44;;;;;;;6.18;1.08;;;;;;;;;;5093347;28;20111;-90
2023/08/12 11:37:10;;;;;;;6.97;1.38;;;;;;;;;;5092308;28;20112;-91
2023/08/12 11:39:35;;;;;;;7.95;2.05;;;;;;;;;;5093311;28;20057;-90
2023/08/12 11:42:01;;;;;;;3.55;0.90;;;;;;;;;;5093873;28;20031;-91
2023/08/12 11:44:26;;;;;;;4.60;1.42;;;;;;;;;;5093494;28;20027;-90
2023/08/12 11:46:51;;;;;;;5.22;1.58;;;;;;;;;;5092803;28;20019;-90
2023/08/12 11:49:18;;;;;;;3.42;1.25;;;;;;;;;;5093237;28;20024;-88
2023/08/12 11:51:45;;;;;;;4.85;1.30;;;;;;;;;;5092824;28;20020;-90
2023/08/12 11:54:10;;;;;;;5.63;1.40;;;;;;;;;;5093251;28;20024;-91
2023/08/12 11:56:36;;;;;;;5.78;1.50;;;;;;;;;;5092340;28;20019;-91
2023/08/12 11:59:02;;;;;;;8.95;1.55;;;;;;;;;;5091047;28;20027;-90
2023/08/12 12:01:28;;;;;;;4.63;1.35;;;;;;;;;;5083803;28;20713;-89
2023/08/12 12:03:54;;;;;;;6.20;1.40;;;;;;;;;;5093104;28;20036;-89
2023/08/12 12:06:35;;;;;;;7.97;1.50;;;;;;;;;;5092539;28;20107;-91
2023/08/12 12:09:05;;;;;;;7.32;1.33;;;;;;;;;;5091826;28;20028;-90
2023/08/12 12:11:31;;;;;;;6.05;1.23;;;;;;;;;;5088698;28;20020;-85
2023/08/12 12:13:59;;;;;;;4.57;1.30;;;;;;;;;;5089306;28;20021;-91
2023/08/12 12:16:24;;;;;;;7.78;1.40;;;;;;;;;;5090676;28;20047;-90
2023/08/12 12:18:58;;;;;;;7.13;1.80;;;;;;;;;;5089163;28;20074;-90
2023/08/12 12:21:23;;;;;;;6.78;1.40;;;;;;;;;;5105950;28;20020;-90
2023/08/12 12:23:52;;;;;;;8.95;1.52;;;;;;;;;;5084365;28;20020;-91
2023/08/12 12:26:18;;;;;;;9.75;1.65;;;;;;;;;;5087172;28;20391;-89
2023/08/12 12:28:43;;;;;;;5.07;1.40;;;;;;;;;;5084424;28;20024;-88
2023/08/12 12:31:09;;;;;;;6.93;1.85;;;;;;;;;;5090307;28;20039;-90
2023/08/12 12:33:34;;;;;;;6.75;1.58;;;;;;;;;;5085475;28;20058;-91
2023/08/12 12:35:59;;;;;;;6.03;1.70;;;;;;;;;;5093019;28;20510;-89
2023/08/12 12:38:25;;;;;;;6.57;1.50;;;;;;;;;;5097019;28;20024;-91
2023/08/12 12:40:51;;;;;;;4.85;1.30;;;;;;;;;;5096164;28;20094;-89
2023/08/12 12:43:16;;;;;;;4.32;1.10;;;;;;;;;;5089283;28;20032;-89
2023/08/12 12:45:42;;;;;;;7.55;1.50;;;;;;;;;;5082751;28;20457;-75
2023/08/12 12:48:07;;;;;;;7.05;1.45;;;;;;;;;;5088632;28;20036;-76
2023/08/12 12:50:32;;;;;;;2.83;1.00;;;;;;;;;;5082031;28;20024;-75
2023/08/12 12:52:58;;;;;;;7.03;1.42;;;;;;;;;;5089674;28;20024;-76
2023/08/12 12:55:23;;;;;;;8.52;1.83;;;;;;;;;;5081387;28;20048;-76
2023/08/12 12:57:48;;;;;;;6.90;2.05;;;;;;;;;;5091258;28;20287;-76
2023/08/12 13:00:14;;;;;;;6.47;1.25;;;;;;;;;;5093822;28;20043;-76
2023/08/12 13:02:41;;;;;;;5.30;1.10;;;;;;;;;;5089974;28;20027;-75
2023/08/12 13:05:06;;;;;;;6.63;1.27;;;;;;;;;;5090755;28;20045;-75
2023/08/12 13:07:32;;;;;;;6.15;1.10;;;;;;;;;;5090885;28;20036;-76
2023/08/12 13:09:57;;;;;;;7.80;1.45;;;;;;;;;;5094225;28;20051;-76
2023/08/12 13:12:22;;;;;;;3.90;1.30;;;;;;;;;;5092210;28;20076;-76
2023/08/12 13:14:48;;;;;;;3.75;1.10;;;;;;;;;;5092333;28;20031;-76
2023/08/12 13:17:13;;;;;;;5.60;1.60;;;;;;;;;;5089822;28;20035;-76
2023/08/12 13:19:39;;;;;;;4.90;1.48;;;;;;;;;;5085218;28;20034;-76
2023/08/12 13:22:04;;;;;;;8.02;1.50;;;;;;;;;;5085744;28;20111;-77
2023/08/12 13:24:29;;;;;;;6.55;1.13;;;;;;;;;;5092409;28;20051;-76
2023/08/12 13:26:55;;;;;;;5.78;1.88;;;;;;;;;;5091295;28;20019;-76
2023/08/12 13:29:20;;;;;;;6.68;1.17;;;;;;;;;;5083365;28;20510;-76
2023/08/12 13:31:46;;;;;;;5.80;1.30;;;;;;;;;;5088755;28;20031;-76
2023/08/12 13:34:11;;;;;;;6.88;1.63;;;;;;;;;;5086242;28;20019;-77
2023/08/12 13:36:37;;;;;;;6.00;1.40;;;;;;;;;;5090758;28;20034;-75
2023/08/12 13:39:02;;;;;;;5.50;1.30;;;;;;;;;;5081527;28;20107;-76
2023/08/12 13:41:27;;;;;;;6.18;1.40;;;;;;;;;;5078415;28;20017;-76
2023/08/12 13:43:53;;;;;;;5.82;1.60;;;;;;;;;;5091721;28;20028;-76
2023/08/12 13:46:18;;;;;;;6.72;2.08;;;;;;;;;;5095667;28;20020;-76
2023/08/12 13:48:44;;;;;;;5.97;1.60;;;;;;;;;;5091967;28;20028;-76
2023/08/12 13:51:09;;;;;;;5.65;1.20;;;;;;;;;;5089860;28;20491;-76
2023/08/12 13:53:34;;;;;;;7.18;1.70;;;;;;;;;;5089621;28;20165;-76
2023/08/12 13:56:00;;;;;;;9.20;1.33;;;;;;;;;;5091942;28;20082;-89
2023/08/12 13:58:25;;;;;;;8.52;1.55;;;;;;;;;;5090835;28;20034;-90
2023/08/12 14:00:50;;;;;;;6.00;1.60;;;;;;;;;;5089796;28;20480;-90
2023/08/12 14:03:16;;;;;;;8.23;1.52;;;;;;;;;;5089629;28;20050;-89
2023/08/12 14:05:42;;;;;;;6.95;1.42;;;;;;;;;;5090764;28;20028;-91
2023/08/12 14:08:07;;;;;;;7.25;1.30;;;;;;;;;;5068807;28;20503;-90
2023/08/12 14:10:32;;;;;;;8.90;1.90;;;;;;;;;;5097715;28;20107;-89
2023/08/12 14:12:58;;;;;;;5.13;1.48;;;;;;;;;;5084713;28;20483;-90
2023/08/12 14:15:23;;;;;;;5.13;1.40;;;;;;;;;;5090946;28;20028;-90
2023/08/12 14:17:49;;;;;;;11.43;1.83;;;;;;;;;;5089921;28;20536;-90
2023/08/12 14:20:15;;;;;;;5.10;1.45;;;;;;;;;;5086898;28;20032;-89
2023/08/12 14:22:40;;;;;;;6.53;1.80;;;;;;;;;;5082880;28;20081;-90
2023/08/12 14:25:07;;;;;;;5.50;1.13;;;;;;;;;;5090168;28;20303;-90
2023/08/12 14:27:32;;;;;;;5.22;1.40;;;;;;;;;;5090213;28;20032;-89
2023/08/12 14:29:58;;;;;;;5.55;1.40;;;;;;;;;;5094535;28;20027;-89
2023/08/12 14:32:23;;;;;;;6.53;1.25;;;;;;;;;;5093087;28;20080;-89
2023/08/12 14:34:48;;;;;;;6.70;1.20;;;;;;;;;;5092944;28;20020;-89
2023/08/12 14:37:14;;;;;;;5.55;1.50;;;;;;;;;;5086115;28;20468;-86